Time;durP1;ratioP1;P1;durP2;ratioP2;P2;SDS_P1;SDS_P2;PMS_P1;PMS_P2;Temp;Humidity;BMP_temperature;BMP_pressure;BME280_temperature;BME280_humidity;BME280_pressure;Samples;Min_cycle;Max_cycle;Signal;HPM_P1;HPM_P2
2022/07/10 00:01:07;;;;;;;7.65;3.83;;;;;;;;;;5025087;28;20362;-73
2022/07/10 00:03:32;;;;;;;3.77;2.13;;;;;;;;;;5022115;28;20326;-71
2022/07/10 00:05:58;;;;;;;8.53;2.47;;;;;;;;;;5020939;28;20321;-74
2022/07/10 00:08:23;;;;;;;8.23;3.13;;;;;;;;;;5021537;28;20274;-74
2022/07/10 00:10:48;;;;;;;5.37;2.37;;;;;;;;;;5023155;28;20424;-74
2022/07/10 00:13:13;;;;;;;4.00;2.42;;;;;;;;;;5019162;28;20025;-72
2022/07/10 00:15:38;;;;;;;6.53;2.80;;;;;;;;;;5018636;28;20698;-72
2022/07/10 00:18:03;;;;;;;9.40;2.42;;;;;;;;;;5019295;28;20274;-74
2022/07/10 00:20:29;;;;;;;8.73;2.72;;;;;;;;;;5020404;28;20160;-72
2022/07/10 00:22:54;;;;;;;8.80;2.42;;;;;;;;;;5021890;28;20021;-72
2022/07/10 00:25:19;;;;;;;6.07;2.30;;;;;;;;;;5030093;28;20018;-72
2022/07/10 00:27:45;;;;;;;3.87;2.23;;;;;;;;;;5024403;28;20108;-71
2022/07/10 00:30:10;;;;;;;7.53;2.20;;;;;;;;;;5023227;28;20025;-72
2022/07/10 00:32:36;;;;;;;3.30;2.22;;;;;;;;;;5022730;28;20615;-72
2022/07/10 00:35:02;;;;;;;5.78;2.42;;;;;;;;;;5024775;28;20071;-72
2022/07/10 00:37:27;;;;;;;9.27;2.33;;;;;;;;;;5025401;28;20025;-72
2022/07/10 00:39:52;;;;;;;8.18;2.10;;;;;;;;;;5022925;28;20017;-74
2022/07/10 00:42:17;;;;;;;13.23;2.23;;;;;;;;;;5025218;28;20025;-72
2022/07/10 00:44:43;;;;;;;6.70;2.20;;;;;;;;;;5022163;28;20344;-72
2022/07/10 00:47:09;;;;;;;8.65;2.13;;;;;;;;;;5022540;28;20033;-72
2022/07/10 00:49:35;;;;;;;8.50;2.35;;;;;;;;;;5026479;28;20017;-72
2022/07/10 00:52:01;;;;;;;7.03;2.10;;;;;;;;;;5025960;28;20017;-74
2022/07/10 00:54:26;;;;;;;9.18;2.10;;;;;;;;;;5023570;28;20026;-73
2022/07/10 00:56:52;;;;;;;7.25;2.33;;;;;;;;;;5021428;28;20029;-73
2022/07/10 00:59:18;;;;;;;7.13;2.28;;;;;;;;;;5025559;28;20053;-73
2022/07/10 01:01:44;;;;;;;9.48;2.25;;;;;;;;;;5022712;28;20072;-73
2022/07/10 01:04:09;;;;;;;3.03;2.20;;;;;;;;;;5025357;28;20036;-73
2022/07/10 01:06:34;;;;;;;9.30;2.33;;;;;;;;;;5022305;28;20049;-73
2022/07/10 01:08:59;;;;;;;10.27;2.57;;;;;;;;;;5027407;28;20399;-73
2022/07/10 01:11:24;;;;;;;5.40;2.63;;;;;;;;;;5027105;28;20018;-73
2022/07/10 01:13:50;;;;;;;7.57;2.20;;;;;;;;;;5027515;28;20029;-73
2022/07/10 01:16:15;;;;;;;12.07;3.72;;;;;;;;;;5026903;28;20045;-73
2022/07/10 01:18:40;;;;;;;6.78;2.25;;;;;;;;;;5028551;28;20032;-73
2022/07/10 01:21:05;;;;;;;7.20;2.23;;;;;;;;;;5027323;28;20025;-73
2022/07/10 01:23:31;;;;;;;7.50;2.30;;;;;;;;;;5027944;28;20277;-74
2022/07/10 01:25:56;;;;;;;5.30;3.00;;;;;;;;;;5007724;28;20480;-73
2022/07/10 01:28:21;;;;;;;7.05;3.30;;;;;;;;;;5008497;28;20263;-73
2022/07/10 01:30:49;;;;;;;12.80;4.55;;;;;;;;;;5008125;28;20535;-73
2022/07/10 01:33:15;;;;;;;18.30;5.43;;;;;;;;;;5007726;28;21134;-73
2022/07/10 01:35:40;;;;;;;13.65;4.00;;;;;;;;;;5003517;28;20062;-73
2022/07/10 01:38:06;;;;;;;15.52;3.63;;;;;;;;;;5007619;28;20075;-73
2022/07/10 01:40:31;;;;;;;10.82;4.78;;;;;;;;;;5008639;28;20057;-73
2022/07/10 01:42:58;;;;;;;10.73;3.40;;;;;;;;;;5007733;28;20044;-73
2022/07/10 01:45:23;;;;;;;7.70;3.50;;;;;;;;;;5004332;28;20041;-73
2022/07/10 01:47:48;;;;;;;6.57;3.63;;;;;;;;;;5007207;28;20017;-73
2022/07/10 01:50:13;;;;;;;14.88;3.50;;;;;;;;;;5007626;28;20899;-73
2022/07/10 01:52:39;;;;;;;7.15;2.60;;;;;;;;;;5009034;28;20017;-73
2022/07/10 01:55:04;;;;;;;6.83;3.10;;;;;;;;;;5000706;28;20030;-73
2022/07/10 01:57:30;;;;;;;6.20;2.50;;;;;;;;;;5006645;28;20271;-73
2022/07/10 01:59:55;;;;;;;7.37;4.47;;;;;;;;;;5007533;28;20025;-73
2022/07/10 02:02:21;;;;;;;14.15;3.30;;;;;;;;;;5007359;28;20393;-73
2022/07/10 02:04:46;;;;;;;8.60;2.50;;;;;;;;;;5004187;28;20338;-73
2022/07/10 02:07:12;;;;;;;11.80;2.60;;;;;;;;;;5008236;28;20490;-73
2022/07/10 02:09:41;;;;;;;9.35;2.80;;;;;;;;;;5007386;28;20263;-73
2022/07/10 02:12:07;;;;;;;11.88;3.22;;;;;;;;;;5006628;28;20034;-73
2022/07/10 02:14:32;;;;;;;10.32;2.25;;;;;;;;;;5004180;28;20038;-73
2022/07/10 02:16:57;;;;;;;7.30;2.93;;;;;;;;;;5007289;28;20022;-73
2022/07/10 02:19:23;;;;;;;13.20;2.63;;;;;;;;;;5004782;28;20535;-73
2022/07/10 02:21:48;;;;;;;4.80;2.40;;;;;;;;;;5005282;28;20411;-73
2022/07/10 02:24:13;;;;;;;11.23;2.70;;;;;;;;;;5003559;28;20160;-73
2022/07/10 02:26:38;;;;;;;8.37;2.73;;;;;;;;;;5006138;28;20436;-73
2022/07/10 02:29:04;;;;;;;5.97;2.28;;;;;;;;;;5007139;28;20266;-73
2022/07/10 02:31:29;;;;;;;8.93;2.60;;;;;;;;;;5006613;28;20073;-73
2022/07/10 02:33:54;;;;;;;6.90;2.60;;;;;;;;;;5004206;28;20042;-73
2022/07/10 02:36:19;;;;;;;7.40;2.30;;;;;;;;;;5005407;28;20052;-73
2022/07/10 02:38:44;;;;;;;5.67;2.90;;;;;;;;;;5007131;28;20286;-73
2022/07/10 02:41:10;;;;;;;6.80;2.60;;;;;;;;;;5006703;28;20275;-73
2022/07/10 02:43:35;;;;;;;10.33;2.80;;;;;;;;;;4999575;28;20041;-73
2022/07/10 02:46:01;;;;;;;11.85;2.60;;;;;;;;;;4999242;28;20053;-73
2022/07/10 02:48:26;;;;;;;19.45;5.30;;;;;;;;;;5000223;28;22414;-73
2022/07/10 02:50:52;;;;;;;10.52;3.20;;;;;;;;;;5003627;28;20026;-73
2022/07/10 02:53:17;;;;;;;11.30;3.25;;;;;;;;;;5001637;28;20135;-73
2022/07/10 02:55:42;;;;;;;7.10;2.83;;;;;;;;;;5000485;28;20032;-73
2022/07/10 02:58:09;;;;;;;7.30;3.10;;;;;;;;;;5002282;28;20271;-73
2022/07/10 03:00:34;;;;;;;12.02;3.90;;;;;;;;;;5002830;28;22096;-73
2022/07/10 03:02:59;;;;;;;9.63;3.20;;;;;;;;;;5000303;28;20044;-72
2022/07/10 03:05:24;;;;;;;3.97;2.90;;;;;;;;;;5006397;28;20021;-73
2022/07/10 03:07:50;;;;;;;11.23;2.90;;;;;;;;;;5007737;28;20029;-73
2022/07/10 03:10:15;;;;;;;12.37;3.50;;;;;;;;;;4995880;28;20267;-72
2022/07/10 03:12:40;;;;;;;9.13;3.45;;;;;;;;;;5002302;28;20287;-73
2022/07/10 03:15:05;;;;;;;7.47;3.30;;;;;;;;;;5002139;28;20354;-73
2022/07/10 03:17:31;;;;;;;6.75;3.50;;;;;;;;;;5005640;28;20140;-73
2022/07/10 03:19:56;;;;;;;11.40;4.68;;;;;;;;;;4999761;28;20500;-73
2022/07/10 03:22:21;;;;;;;8.30;3.17;;;;;;;;;;5000427;28;20033;-73
2022/07/10 03:24:46;;;;;;;11.60;3.43;;;;;;;;;;5001738;28;20794;-73
2022/07/10 03:27:13;;;;;;;8.40;3.50;;;;;;;;;;5002993;28;20683;-73
2022/07/10 03:29:38;;;;;;;8.45;3.60;;;;;;;;;;5001252;28;20017;-73
2022/07/10 03:32:04;;;;;;;10.57;3.53;;;;;;;;;;5002029;28;20033;-73
2022/07/10 03:34:30;;;;;;;7.13;3.55;;;;;;;;;;5000139;28;20580;-73
2022/07/10 03:36:55;;;;;;;8.77;3.92;;;;;;;;;;5006896;28;20014;-73
2022/07/10 03:39:20;;;;;;;9.00;3.53;;;;;;;;;;5002437;28;20018;-73
2022/07/10 03:41:45;;;;;;;11.15;3.60;;;;;;;;;;5004106;28;21023;-73
2022/07/10 03:44:10;;;;;;;8.45;3.25;;;;;;;;;;5005272;28;20163;-73
2022/07/10 03:46:35;;;;;;;15.83;3.20;;;;;;;;;;4996297;28;20029;-72
2022/07/10 03:49:01;;;;;;;8.13;3.33;;;;;;;;;;5003439;28;20562;-72
2022/07/10 03:51:26;;;;;;;8.70;2.93;;;;;;;;;;5001920;28;20022;-73
2022/07/10 03:53:51;;;;;;;5.90;3.10;;;;;;;;;;5001842;28;20306;-72
2022/07/10 03:59:00;;;;;;;7.13;3.25;;;;;;;;;;5000819;28;20024;-73
2022/07/10 04:01:25;;;;;;;4.45;2.78;;;;;;;;;;5002492;28;20121;-73
2022/07/10 04:03:50;;;;;;;5.93;3.45;;;;;;;;;;5007117;28;20034;-73
2022/07/10 04:06:16;;;;;;;8.30;3.30;;;;;;;;;;5007767;28;20078;-73
2022/07/10 04:08:41;;;;;;;7.17;3.23;;;;;;;;;;5008624;28;20535;-73
2022/07/10 04:11:06;;;;;;;11.63;3.70;;;;;;;;;;5004108;28;20037;-73
2022/07/10 04:13:31;;;;;;;10.07;3.53;;;;;;;;;;5005783;28;20027;-73
2022/07/10 04:15:57;;;;;;;7.38;2.90;;;;;;;;;;5005287;28;20275;-73
2022/07/10 04:18:22;;;;;;;10.57;3.60;;;;;;;;;;5007686;28;20033;-73
2022/07/10 04:20:47;;;;;;;6.65;3.03;;;;;;;;;;5005993;28;20408;-73
2022/07/10 04:23:12;;;;;;;8.63;3.40;;;;;;;;;;5003897;28;20018;-73
2022/07/10 04:25:37;;;;;;;6.60;3.33;;;;;;;;;;5006806;28;20279;-73
2022/07/10 04:28:03;;;;;;;8.13;4.20;;;;;;;;;;5008083;28;20030;-73
2022/07/10 04:30:28;;;;;;;7.63;3.35;;;;;;;;;;5004795;28;20259;-73
2022/07/10 04:32:53;;;;;;;11.03;3.33;;;;;;;;;;5001995;28;20022;-73
2022/07/10 04:35:18;;;;;;;10.48;3.25;;;;;;;;;;5001848;28;20018;-73
2022/07/10 04:37:43;;;;;;;10.17;3.30;;;;;;;;;;5004793;28;20073;-73
2022/07/10 04:40:09;;;;;;;9.37;3.30;;;;;;;;;;5002177;28;20350;-73
2022/07/10 04:42:34;;;;;;;8.55;3.00;;;;;;;;;;5004932;28;20034;-73
2022/07/10 04:44:59;;;;;;;10.37;3.53;;;;;;;;;;5001381;28;20018;-73
2022/07/10 04:47:24;;;;;;;10.77;3.97;;;;;;;;;;5003389;28;20637;-73
2022/07/10 04:49:49;;;;;;;9.77;3.03;;;;;;;;;;5003366;28;20278;-73
2022/07/10 04:52:15;;;;;;;8.03;3.23;;;;;;;;;;5000700;28;20052;-73
2022/07/10 04:54:40;;;;;;;5.70;3.05;;;;;;;;;;5000704;28;20120;-72
2022/07/10 04:57:05;;;;;;;10.77;3.50;;;;;;;;;;5001509;28;20026;-73
2022/07/10 04:59:30;;;;;;;11.13;3.13;;;;;;;;;;5001673;28;20349;-73
2022/07/10 05:01:56;;;;;;;13.32;3.03;;;;;;;;;;5001120;28;20029;-73
2022/07/10 05:04:21;;;;;;;4.27;2.70;;;;;;;;;;5005395;28;20048;-73
2022/07/10 05:06:46;;;;;;;11.00;3.03;;;;;;;;;;5007998;28;20048;-73
2022/07/10 05:09:11;;;;;;;7.17;2.50;;;;;;;;;;5007624;28;20267;-73
2022/07/10 05:11:36;;;;;;;7.07;2.78;;;;;;;;;;5002447;28;20363;-73
2022/07/10 05:14:02;;;;;;;7.70;3.30;;;;;;;;;;5005640;28;20037;-73
2022/07/10 05:16:27;;;;;;;12.20;2.85;;;;;;;;;;5007583;28;20286;-73
2022/07/10 05:18:52;;;;;;;10.00;3.25;;;;;;;;;;5007904;28;20366;-73
2022/07/10 05:21:17;;;;;;;12.23;3.00;;;;;;;;;;5006418;28;20030;-73
2022/07/10 05:23:42;;;;;;;6.82;2.95;;;;;;;;;;5011481;28;20037;-73
2022/07/10 05:26:08;;;;;;;9.20;2.50;;;;;;;;;;5003671;28;20041;-74
2022/07/10 05:28:33;;;;;;;7.82;2.97;;;;;;;;;;5010928;28;20417;-74
2022/07/10 05:30:58;;;;;;;10.50;2.53;;;;;;;;;;5006776;28;20059;-74
2022/07/10 05:33:23;;;;;;;8.48;2.55;;;;;;;;;;5008889;28;20030;-74
2022/07/10 05:35:49;;;;;;;12.10;2.63;;;;;;;;;;5003692;28;20032;-73
2022/07/10 05:38:14;;;;;;;8.48;2.35;;;;;;;;;;5010755;28;20036;-74
2022/07/10 05:40:39;;;;;;;7.83;2.50;;;;;;;;;;5008329;28;20089;-74
2022/07/10 05:43:04;;;;;;;11.07;3.10;;;;;;;;;;5009593;28;20744;-73
2022/07/10 05:45:29;;;;;;;7.07;2.37;;;;;;;;;;5002449;28;20033;-74
2022/07/10 05:47:55;;;;;;;5.40;2.30;;;;;;;;;;5009234;28;20262;-74
2022/07/10 05:50:20;;;;;;;7.47;2.70;;;;;;;;;;5006238;28;20014;-74
2022/07/10 05:52:45;;;;;;;8.77;2.10;;;;;;;;;;5002376;28;20021;-73
2022/07/10 05:55:10;;;;;;;5.47;2.23;;;;;;;;;;5003646;28;20032;-73
2022/07/10 05:57:36;;;;;;;4.77;2.00;;;;;;;;;;5010856;28;20281;-75
2022/07/10 06:00:03;;;;;;;7.93;2.75;;;;;;;;;;5010321;28;20022;-73
2022/07/10 06:02:28;;;;;;;18.25;3.60;;;;;;;;;;5003183;28;20395;-74
2022/07/10 06:04:54;;;;;;;9.80;2.60;;;;;;;;;;5001259;28;20583;-73
2022/07/10 06:07:19;;;;;;;4.37;1.80;;;;;;;;;;5008306;28;20378;-74
2022/07/10 06:09:44;;;;;;;6.00;2.47;;;;;;;;;;5005876;28;20033;-72
2022/07/10 06:12:09;;;;;;;6.60;2.07;;;;;;;;;;4997750;28;20366;-72
2022/07/10 06:14:35;;;;;;;6.63;1.98;;;;;;;;;;5004065;28;20392;-72
2022/07/10 06:17:00;;;;;;;5.95;1.80;;;;;;;;;;5003913;28;20029;-72
2022/07/10 06:19:25;;;;;;;9.30;1.92;;;;;;;;;;5005262;28;20040;-72
2022/07/10 06:22:30;;;;;;;7.33;2.03;;;;;;;;;;5004058;28;20021;-74
2022/07/10 06:24:35;;;;;;;7.10;2.40;;;;;;;;;;5007272;28;20320;-73
2022/07/10 06:27:00;;;;;;;4.97;2.43;;;;;;;;;;5007665;28;20026;-73
2022/07/10 06:29:26;;;;;;;9.60;2.60;;;;;;;;;;5004472;28;20263;-73
2022/07/10 06:31:51;;;;;;;9.30;2.50;;;;;;;;;;5006226;28;20034;-73
2022/07/10 06:34:16;;;;;;;4.57;1.83;;;;;;;;;;5002648;28;20113;-72
2022/07/10 06:36:41;;;;;;;8.50;2.37;;;;;;;;;;5001827;28;20681;-73
2022/07/10 06:39:06;;;;;;;14.10;2.30;;;;;;;;;;5000894;28;20284;-73
2022/07/10 06:41:31;;;;;;;7.30;2.13;;;;;;;;;;5000643;28;20030;-73
2022/07/10 06:43:58;;;;;;;12.27;2.63;;;;;;;;;;5003159;28;20042;-73
2022/07/10 06:46:23;;;;;;;11.50;2.58;;;;;;;;;;5000890;28;20025;-74
2022/07/10 06:48:48;;;;;;;12.07;2.47;;;;;;;;;;5004616;28;20751;-76
2022/07/10 06:51:14;;;;;;;16.83;2.40;;;;;;;;;;5003901;28;20745;-75
2022/07/10 06:53:40;;;;;;;10.65;2.40;;;;;;;;;;5008657;28;20025;-75
2022/07/10 06:56:05;;;;;;;11.30;2.47;;;;;;;;;;5004220;28;20117;-74
2022/07/10 06:58:30;;;;;;;9.80;2.28;;;;;;;;;;5007072;28;20357;-74
2022/07/10 07:00:55;;;;;;;7.80;2.20;;;;;;;;;;4997024;28;20531;-74
2022/07/10 07:03:21;;;;;;;14.45;3.13;;;;;;;;;;5007107;28;20760;-74
2022/07/10 07:05:46;;;;;;;6.97;1.90;;;;;;;;;;5007607;28;20030;-73
2022/07/10 07:08:13;;;;;;;12.27;2.10;;;;;;;;;;5006793;28;20271;-74
2022/07/10 07:10:38;;;;;;;8.05;1.98;;;;;;;;;;5004704;28;20314;-74
2022/07/10 07:13:03;;;;;;;8.97;2.37;;;;;;;;;;5003337;28;20026;-74
2022/07/10 07:15:29;;;;;;;12.17;2.43;;;;;;;;;;5003787;28;20378;-74
2022/07/10 07:18:07;;;;;;;9.43;2.17;;;;;;;;;;5003451;28;20278;-76
2022/07/10 07:23:16;;;;;;;9.55;2.10;;;;;;;;;;5007023;28;20380;-73
2022/07/10 07:25:44;;;;;;;11.32;2.30;;;;;;;;;;5005599;28;20026;-74
2022/07/10 07:28:10;;;;;;;12.98;2.25;;;;;;;;;;5005387;28;20056;-74
2022/07/10 07:30:35;;;;;;;5.63;1.83;;;;;;;;;;5003816;28;20026;-75
2022/07/10 07:33:00;;;;;;;12.32;2.58;;;;;;;;;;4997308;28;20010;-73
2022/07/10 07:35:26;;;;;;;5.55;2.10;;;;;;;;;;5000716;28;20756;-77
2022/07/10 07:37:51;;;;;;;6.80;2.20;;;;;;;;;;5002160;28;20022;-75
2022/07/10 07:40:21;;;;;;;6.65;1.90;;;;;;;;;;5002112;28;20028;-74
2022/07/10 07:42:46;;;;;;;12.23;2.42;;;;;;;;;;5001006;28;20029;-74
2022/07/10 07:45:12;;;;;;;12.43;2.03;;;;;;;;;;4995120;28;20034;-71
2022/07/10 07:47:47;;;;;;;8.70;2.40;;;;;;;;;;5009595;28;20519;-75
2022/07/10 07:50:13;;;;;;;7.47;2.33;;;;;;;;;;4999171;28;20773;-75
2022/07/10 07:52:38;;;;;;;6.55;1.90;;;;;;;;;;4999468;28;20464;-77
2022/07/10 07:55:04;;;;;;;6.50;2.10;;;;;;;;;;4999247;28;20081;-75
2022/07/10 07:57:29;;;;;;;6.95;1.85;;;;;;;;;;4998832;28;20018;-74
2022/07/10 07:59:54;;;;;;;9.52;2.20;;;;;;;;;;5003352;28;20108;-74
2022/07/10 08:02:19;;;;;;;9.57;2.10;;;;;;;;;;5004272;28;20492;-74
2022/07/10 08:04:44;;;;;;;13.20;2.30;;;;;;;;;;5006158;28;21327;-74
2022/07/10 08:07:10;;;;;;;7.93;1.90;;;;;;;;;;5004608;28;20275;-75
2022/07/10 08:09:35;;;;;;;7.90;2.07;;;;;;;;;;5000439;28;20375;-75
2022/07/10 08:12:00;;;;;;;11.50;2.53;;;;;;;;;;5002966;28;20013;-75
2022/07/10 08:14:25;;;;;;;10.65;2.58;;;;;;;;;;5004755;28;20056;-74
2022/07/10 08:16:51;;;;;;;12.73;2.20;;;;;;;;;;5000836;28;20022;-72
2022/07/10 08:19:16;;;;;;;9.63;2.42;;;;;;;;;;5008116;28;20018;-76
2022/07/10 08:21:41;;;;;;;13.23;2.70;;;;;;;;;;5002210;28;20049;-75
2022/07/10 08:24:06;;;;;;;7.53;2.60;;;;;;;;;;4999508;28;20540;-73
2022/07/10 08:26:31;;;;;;;7.43;2.23;;;;;;;;;;4996685;28;20777;-73
2022/07/10 08:28:56;;;;;;;8.47;2.43;;;;;;;;;;4993934;28;20026;-73
2022/07/10 08:31:22;;;;;;;6.33;2.67;;;;;;;;;;5000135;28;20264;-72
2022/07/10 08:33:47;;;;;;;7.00;2.50;;;;;;;;;;5000547;28;20729;-74
2022/07/10 08:36:13;;;;;;;7.45;2.20;;;;;;;;;;4999600;28;20026;-76
2022/07/10 08:38:38;;;;;;;5.20;2.80;;;;;;;;;;5000580;28;20396;-74
2022/07/10 08:41:05;;;;;;;6.13;2.33;;;;;;;;;;4998729;28;20030;-74
2022/07/10 08:43:30;;;;;;;11.93;2.78;;;;;;;;;;4998365;28;20026;-75
2022/07/10 08:45:56;;;;;;;7.63;2.60;;;;;;;;;;5004006;28;20444;-76
2022/07/10 08:48:22;;;;;;;10.63;2.80;;;;;;;;;;5008048;28;20026;-75
2022/07/10 08:50:49;;;;;;;7.18;2.10;;;;;;;;;;5000994;28;20014;-74
2022/07/10 08:53:30;;;;;;;11.07;3.13;;;;;;;;;;5003396;28;20022;-74
2022/07/10 08:55:56;;;;;;;7.57;3.08;;;;;;;;;;5000885;28;20022;-74
2022/07/10 08:58:22;;;;;;;8.98;2.85;;;;;;;;;;4998437;28;20022;-74
2022/07/10 09:00:47;;;;;;;8.75;2.75;;;;;;;;;;4996717;28;20030;-74
2022/07/10 09:03:12;;;;;;;8.27;3.03;;;;;;;;;;4999470;28;20107;-74
2022/07/10 09:05:37;;;;;;;10.03;2.63;;;;;;;;;;5002710;28;20061;-74
2022/07/10 09:08:02;;;;;;;14.07;2.87;;;;;;;;;;5002547;28;20092;-74
2022/07/10 09:10:28;;;;;;;12.20;3.25;;;;;;;;;;4994068;28;20359;-73
2022/07/10 09:12:57;;;;;;;12.75;2.92;;;;;;;;;;4999641;28;20470;-73
2022/07/10 09:15:23;;;;;;;9.90;3.03;;;;;;;;;;5002289;28;20026;-76
2022/07/10 09:17:52;;;;;;;7.22;3.00;;;;;;;;;;4996145;28;20498;-75
2022/07/10 09:20:24;;;;;;;9.15;2.90;;;;;;;;;;4992531;28;20025;-75
2022/07/10 09:22:49;;;;;;;9.63;2.83;;;;;;;;;;5001884;28;20025;-75
2022/07/10 09:25:15;;;;;;;4.40;2.40;;;;;;;;;;4996303;28;20030;-75
2022/07/10 09:27:53;;;;;;;6.60;2.78;;;;;;;;;;4999179;28;20025;-73
2022/07/10 09:30:35;;;;;;;7.63;2.33;;;;;;;;;;4997254;28;20045;-75
2022/07/10 09:33:19;;;;;;;10.93;3.13;;;;;;;;;;4998330;28;20026;-73
2022/07/10 09:36:06;;;;;;;6.95;2.60;;;;;;;;;;5000520;28;20022;-76
2022/07/10 09:38:44;;;;;;;7.60;2.60;;;;;;;;;;4998791;28;20018;-75
2022/07/10 09:41:14;;;;;;;12.02;3.20;;;;;;;;;;4997352;28;20032;-73
2022/07/10 09:43:46;;;;;;;7.53;2.80;;;;;;;;;;5004667;28;20028;-72
2022/07/10 09:46:12;;;;;;;12.88;3.25;;;;;;;;;;4995558;28;20025;-73
2022/07/10 09:48:37;;;;;;;10.40;2.97;;;;;;;;;;5003299;28;20026;-74
2022/07/10 09:51:03;;;;;;;6.23;2.63;;;;;;;;;;5006777;28;20029;-76
2022/07/10 09:53:29;;;;;;;10.23;3.08;;;;;;;;;;5003107;28;20050;-72
2022/07/10 09:55:56;;;;;;;9.50;2.92;;;;;;;;;;5000669;28;20128;-77
2022/07/10 09:58:24;;;;;;;10.63;3.28;;;;;;;;;;4999103;28;20026;-76
2022/07/10 10:00:50;;;;;;;7.90;3.03;;;;;;;;;;5003380;28;20372;-79
2022/07/10 10:03:16;;;;;;;4.82;2.65;;;;;;;;;;5001398;28;20487;-78
2022/07/10 10:05:43;;;;;;;5.63;3.25;;;;;;;;;;5000936;28;20228;-79
2022/07/10 10:08:08;;;;;;;7.45;2.83;;;;;;;;;;5002804;28;20516;-77
2022/07/10 10:10:34;;;;;;;8.40;3.03;;;;;;;;;;4999806;28;20483;-75
2022/07/10 10:13:01;;;;;;;8.60;3.30;;;;;;;;;;5002549;28;20802;-75
2022/07/10 10:15:27;;;;;;;8.48;3.20;;;;;;;;;;5000648;28;20365;-74
2022/07/10 10:17:52;;;;;;;8.32;3.30;;;;;;;;;;5000128;28;20103;-75
2022/07/10 10:23:03;;;;;;;9.07;3.10;;;;;;;;;;4997007;28;20124;-73
2022/07/10 10:25:31;;;;;;;9.02;2.88;;;;;;;;;;4997942;28;20045;-75
2022/07/10 10:27:57;;;;;;;5.68;2.65;;;;;;;;;;5004979;28;20037;-75
2022/07/10 10:30:22;;;;;;;4.60;2.80;;;;;;;;;;5000168;28;20014;-75
2022/07/10 10:32:47;;;;;;;9.05;2.80;;;;;;;;;;5003252;28;20123;-75
2022/07/10 10:35:32;;;;;;;5.45;2.97;;;;;;;;;;5001413;28;20050;-73
2022/07/10 10:37:58;;;;;;;5.65;2.63;;;;;;;;;;5002635;28;20038;-75
2022/07/10 10:40:34;;;;;;;3.90;2.65;;;;;;;;;;4996629;28;20025;-75
2022/07/10 10:43:16;;;;;;;11.40;3.47;;;;;;;;;;4991822;28;20092;-75
2022/07/10 10:45:42;;;;;;;3.63;2.42;;;;;;;;;;4998814;28;20050;-76
2022/07/10 10:48:08;;;;;;;6.82;2.40;;;;;;;;;;5002105;28;20380;-77
2022/07/10 10:50:40;;;;;;;5.80;2.17;;;;;;;;;;4996803;28;20034;-75
2022/07/10 10:53:11;;;;;;;6.55;2.35;;;;;;;;;;4999129;28;20037;-75
2022/07/10 10:55:37;;;;;;;7.03;2.30;;;;;;;;;;5001106;28;20026;-73
2022/07/10 10:58:24;;;;;;;8.93;2.37;;;;;;;;;;5004864;28;20542;-75
2022/07/10 11:00:49;;;;;;;4.07;2.25;;;;;;;;;;4995398;28;20357;-75
2022/07/10 11:03:15;;;;;;;4.90;2.40;;;;;;;;;;4998725;28;20526;-74
2022/07/10 11:05:41;;;;;;;5.43;2.67;;;;;;;;;;5004674;28;20022;-73
2022/07/10 11:08:07;;;;;;;6.72;2.80;;;;;;;;;;5004759;28;20034;-77
2022/07/10 11:10:32;;;;;;;7.28;2.28;;;;;;;;;;4994540;28;20029;-73
2022/07/10 11:13:11;;;;;;;8.48;2.33;;;;;;;;;;4992888;28;20420;-76
2022/07/10 11:15:37;;;;;;;5.20;2.80;;;;;;;;;;5000596;28;20032;-75
2022/07/10 11:18:05;;;;;;;7.72;3.25;;;;;;;;;;5003221;28;20455;-78
2022/07/10 11:20:37;;;;;;;7.55;3.00;;;;;;;;;;4999834;28;20021;-74
2022/07/10 11:23:21;;;;;;;7.25;2.83;;;;;;;;;;4999086;28;20149;-77
2022/07/10 11:25:50;;;;;;;;;;;;;;;;;;5001419;28;20410;-76
2022/07/10 11:28:21;;;;;;;5.90;2.80;;;;;;;;;;5000359;28;19917;-75
2022/07/10 11:30:50;;;;;;;2.85;2.13;;;;;;;;;;5003847;28;20083;-75
2022/07/10 11:33:16;;;;;;;5.20;2.75;;;;;;;;;;4998461;28;20029;-74
2022/07/10 11:35:44;;;;;;;5.60;2.75;;;;;;;;;;5005648;28;20024;-74
2022/07/10 11:38:09;;;;;;;7.18;3.00;;;;;;;;;;4997119;28;20088;-74
2022/07/10 11:40:37;;;;;;;6.32;2.75;;;;;;;;;;4995887;28;20382;-73
2022/07/10 11:43:05;;;;;;;4.97;2.78;;;;;;;;;;4996524;28;20364;-72
2022/07/10 11:45:32;;;;;;;8.82;2.60;;;;;;;;;;5002438;28;20045;-72
2022/07/10 11:47:58;;;;;;;9.63;2.90;;;;;;;;;;4996751;28;20065;-72
2022/07/10 11:50:23;;;;;;;13.27;3.28;;;;;;;;;;5001233;28;20030;-76
2022/07/10 11:52:50;;;;;;;7.85;2.65;;;;;;;;;;5010622;28;20249;-74
2022/07/10 11:55:19;;;;;;;6.45;2.65;;;;;;;;;;5008635;28;20021;-76
2022/07/10 11:57:48;;;;;;;8.10;3.28;;;;;;;;;;5016371;28;20087;-72
2022/07/10 12:00:23;;;;;;;5.97;3.58;;;;;;;;;;5005722;28;20032;-72
2022/07/10 12:02:48;;;;;;;4.32;2.80;;;;;;;;;;5002172;28;20101;-72
2022/07/10 12:05:29;;;;;;;8.67;3.50;;;;;;;;;;5005270;28;20033;-75
2022/07/10 12:07:54;;;;;;;7.05;3.00;;;;;;;;;;5006808;28;20301;-73
2022/07/10 12:10:20;;;;;;;14.65;4.43;;;;;;;;;;5007579;28;20026;-73
2022/07/10 12:12:45;;;;;;;4.90;2.60;;;;;;;;;;5002492;28;20021;-72
2022/07/10 12:15:11;;;;;;;9.85;3.22;;;;;;;;;;5001631;28;20369;-72
2022/07/10 12:17:36;;;;;;;23.42;8.52;;;;;;;;;;5011171;28;20122;-72
2022/07/10 12:20:01;;;;;;;8.10;3.33;;;;;;;;;;5008978;28;20121;-73
2022/07/10 12:22:26;;;;;;;9.40;3.05;;;;;;;;;;5005913;28;20785;-73
2022/07/10 12:24:52;;;;;;;10.77;4.60;;;;;;;;;;5006781;28;20022;-73
2022/07/10 12:27:36;;;;;;;4.65;3.13;;;;;;;;;;5012089;28;20057;-76
2022/07/10 12:30:01;;;;;;;11.18;2.85;;;;;;;;;;5003791;28;20488;-74
2022/07/10 12:32:27;;;;;;;6.65;2.53;;;;;;;;;;5005112;28;20336;-74
2022/07/10 12:34:58;;;;;;;7.90;2.60;;;;;;;;;;5003496;28;20025;-73
2022/07/10 12:37:23;;;;;;;7.15;2.70;;;;;;;;;;5007157;28;20022;-72
2022/07/10 12:39:49;;;;;;;7.93;2.65;;;;;;;;;;5003370;28;20028;-75
2022/07/10 12:42:24;;;;;;;8.50;3.15;;;;;;;;;;5005791;28;20061;-76
2022/07/10 12:44:49;;;;;;;8.50;2.80;;;;;;;;;;4999847;28;20125;-73
2022/07/10 12:47:16;;;;;;;6.60;2.87;;;;;;;;;;4998496;28;20079;-74
2022/07/10 12:50:13;;;;;;;5.10;2.80;;;;;;;;;;5007547;28;20633;-76
2022/07/10 12:52:39;;;;;;;4.55;2.60;;;;;;;;;;4958666;28;20034;-73
2022/07/10 12:55:09;;;;;;;7.18;3.08;;;;;;;;;;5000757;28;20030;-74
2022/07/10 12:57:44;;;;;;;11.85;2.80;;;;;;;;;;5003368;28;20123;-72
2022/07/10 13:00:13;;;;;;;7.00;2.58;;;;;;;;;;4988109;28;20250;-71
2022/07/10 13:02:38;;;;;;;12.02;2.90;;;;;;;;;;4990108;28;20023;-72
2022/07/10 13:05:04;;;;;;;11.60;2.55;;;;;;;;;;4985552;28;20034;-75
2022/07/10 13:07:33;;;;;;;9.38;2.92;;;;;;;;;;4986510;28;20449;-72
2022/07/10 13:09:59;;;;;;;11.40;2.60;;;;;;;;;;4984110;28;20030;-73
2022/07/10 13:12:24;;;;;;;7.70;2.40;;;;;;;;;;4986126;28;20033;-74
2022/07/10 13:14:49;;;;;;;10.98;2.92;;;;;;;;;;4983203;28;20017;-73
2022/07/10 13:17:14;;;;;;;7.40;2.63;;;;;;;;;;4989912;28;20043;-72
2022/07/10 13:19:39;;;;;;;3.73;1.93;;;;;;;;;;4987282;28;20021;-72
2022/07/10 13:22:05;;;;;;;12.07;2.42;;;;;;;;;;4985335;28;20065;-74
2022/07/10 13:24:30;;;;;;;2.97;2.10;;;;;;;;;;4983527;28;20492;-72
2022/07/10 13:26:56;;;;;;;8.40;2.47;;;;;;;;;;4989605;28;20022;-73
2022/07/10 13:29:22;;;;;;;6.07;2.53;;;;;;;;;;4986328;28;20461;-72
2022/07/10 13:31:47;;;;;;;5.33;2.73;;;;;;;;;;4987065;28;20125;-73
2022/07/10 13:34:12;;;;;;;7.13;2.15;;;;;;;;;;4977587;28;20026;-72
2022/07/10 13:36:37;;;;;;;5.88;2.10;;;;;;;;;;4983519;28;20399;-71
2022/07/10 13:39:03;;;;;;;5.43;2.23;;;;;;;;;;4988729;28;20026;-72
2022/07/10 13:41:28;;;;;;;7.90;2.17;;;;;;;;;;4986124;28;20271;-72
2022/07/10 13:43:53;;;;;;;6.10;2.07;;;;;;;;;;4986207;28;20275;-72
2022/07/10 13:46:18;;;;;;;5.97;2.10;;;;;;;;;;4981728;28;20022;-71
2022/07/10 13:48:44;;;;;;;2.90;1.97;;;;;;;;;;4988204;28;20668;-70
2022/07/10 13:51:09;;;;;;;5.90;2.40;;;;;;;;;;4985041;28;20026;-72
2022/07/10 13:53:34;;;;;;;5.20;1.83;;;;;;;;;;4986641;28;20380;-71
2022/07/10 13:55:59;;;;;;;8.27;2.23;;;;;;;;;;4988494;28;20275;-71
2022/07/10 13:58:25;;;;;;;7.43;1.93;;;;;;;;;;4987413;28;20472;-71
2022/07/10 14:00:50;;;;;;;7.40;2.37;;;;;;;;;;4983325;28;20737;-71
2022/07/10 14:03:15;;;;;;;7.33;2.50;;;;;;;;;;4986116;28;20489;-71
2022/07/10 14:05:40;;;;;;;7.83;2.27;;;;;;;;;;4983725;28;20637;-71
2022/07/10 14:08:05;;;;;;;7.30;2.37;;;;;;;;;;4987809;28;20642;-71
2022/07/10 14:10:31;;;;;;;6.67;2.17;;;;;;;;;;4980046;28;20273;-71
2022/07/10 14:12:56;;;;;;;5.90;2.33;;;;;;;;;;4987211;28;20384;-71
2022/07/10 14:15:22;;;;;;;6.47;2.00;;;;;;;;;;4984074;28;20112;-71
2022/07/10 14:17:48;;;;;;;6.45;2.25;;;;;;;;;;4988599;28;20021;-72
2022/07/10 14:20:14;;;;;;;3.15;2.20;;;;;;;;;;4983586;28;20025;-72
2022/07/10 14:22:39;;;;;;;14.48;6.72;;;;;;;;;;4982721;28;20041;-71
2022/07/10 14:25:04;;;;;;;6.43;2.80;;;;;;;;;;4982482;28;20637;-71
2022/07/10 14:27:31;;;;;;;7.85;3.03;;;;;;;;;;4982259;28;20120;-71
2022/07/10 14:29:57;;;;;;;4.45;3.35;;;;;;;;;;4984923;28;20426;-71
2022/07/10 14:32:22;;;;;;;8.07;2.53;;;;;;;;;;4983522;28;20397;-71
2022/07/10 14:34:47;;;;;;;7.10;2.83;;;;;;;;;;4985358;28;20460;-71
2022/07/10 14:37:12;;;;;;;8.20;2.60;;;;;;;;;;4991597;28;20705;-71
2022/07/10 14:39:37;;;;;;;10.13;2.60;;;;;;;;;;4996789;28;20457;-71
2022/07/10 14:42:04;;;;;;;9.10;4.23;;;;;;;;;;5003045;28;20120;-71
2022/07/10 14:44:30;;;;;;;8.23;2.47;;;;;;;;;;4992685;28;20044;-71